createdAt,value
2022-09-16T00:01:14.395Z,95984.66
2022-09-16T00:03:48.384Z,96006.91
2022-09-16T00:06:23.440Z,95988.56
2022-09-16T00:08:52.133Z,95968.34
2022-09-16T00:11:20.455Z,95982.66
2022-09-16T00:13:49.401Z,95976.53
2022-09-16T00:16:21.740Z,96020.34
2022-09-16T00:18:49.999Z,95996.75
2022-09-16T00:21:18.146Z,95968.28
2022-09-16T00:23:47.675Z,95994.72
2022-09-16T00:26:15.903Z,95932.25
2022-09-16T00:28:44.309Z,95919.22
2022-09-16T00:31:12.531Z,95946.81
2022-09-16T00:33:40.749Z,95997.81
2022-09-16T00:36:11.582Z,95982.91
2022-09-16T00:38:40.487Z,95993.59
2022-09-16T00:41:15.886Z,95909.66
2022-09-16T00:43:59.554Z,95908.06
2022-09-16T00:46:35.171Z,95980.03
2022-09-16T00:49:10.738Z,95942.25
2022-09-16T00:51:40.538Z,95965.16
2022-09-16T00:54:10.398Z,95953.66
2022-09-16T00:56:44.540Z,95941.22
2022-09-16T00:59:16.562Z,95949.13
2022-09-16T01:01:45.581Z,95982.59
2022-09-16T01:04:19.650Z,95960.69
2022-09-16T01:06:47.771Z,95966.03
2022-09-16T01:09:16.589Z,95974.28
2022-09-16T01:11:46.063Z,95978.88
2022-09-16T01:14:32.467Z,95959.69
2022-09-16T01:17:08.981Z,95986.56
2022-09-16T01:20:05.445Z,95978.47
2022-09-16T01:22:50.557Z,95969.47
2022-09-16T01:25:39.510Z,96004.91
2022-09-16T01:28:36.315Z,95998.88
2022-09-16T01:31:14.048Z,95983.81
2022-09-16T01:33:52.476Z,95982.91
2022-09-16T01:36:38.034Z,95931.81
2022-09-16T01:39:16.637Z,95950.59
2022-09-16T01:42:00.610Z,95968.13
2022-09-16T01:44:40.474Z,95991.22
2022-09-16T01:47:18.634Z,96000.59
2022-09-16T01:49:55.149Z,95955.22
2022-09-16T01:52:36.118Z,95962.47
2022-09-16T01:55:08.403Z,96001.09
2022-09-16T01:57:41.893Z,95972.88
2022-09-16T02:00:14.340Z,95972.88
2022-09-16T02:02:49.970Z,95992.09
2022-09-16T02:05:50.254Z,95963.72
2022-09-16T02:08:24.262Z,95957.69
2022-09-16T02:10:57.492Z,95935.69
2022-09-16T02:13:31.902Z,95985.72
2022-09-16T02:16:05.249Z,95997.94
2022-09-16T02:18:39.857Z,96004.03
2022-09-16T02:21:12.675Z,95958.56
2022-09-16T02:23:45.850Z,96001.78
2022-09-16T02:26:20.051Z,95977.91
2022-09-16T02:28:50.960Z,95953.66
2022-09-16T02:31:27.328Z,95967.72
2022-09-16T02:34:02.269Z,95956.69
2022-09-16T02:36:32.187Z,96009.41
2022-09-16T02:39:29.943Z,95966.00
2022-09-16T02:41:59.531Z,95977.63
2022-09-16T02:44:27.898Z,95981.09
2022-09-16T02:47:02.169Z,95967.47
2022-09-16T02:49:42.196Z,95963.84
2022-09-16T02:52:19.125Z,95999.97
2022-09-16T02:54:54.897Z,95996.47
2022-09-16T02:57:23.775Z,95944.25
2022-09-16T02:59:52.257Z,95982.09
2022-09-16T03:02:20.645Z,95981.50
2022-09-16T03:04:50.732Z,95975.00
2022-09-16T03:07:19.574Z,95919.03
2022-09-16T03:09:50.189Z,95957.78
2022-09-16T03:12:53.358Z,95976.91
2022-09-16T03:15:56.839Z,95994.53
2022-09-16T03:18:45.411Z,95928.56
2022-09-16T03:21:23.034Z,95977.38
2022-09-16T03:24:00.355Z,95947.75
2022-09-16T03:26:48.924Z,95972.81
2022-09-16T03:29:25.797Z,95914.31
2022-09-16T03:32:02.858Z,95959.53
2022-09-16T03:34:35.469Z,95776.78
2022-09-16T03:37:09.988Z,95971.13
2022-09-16T03:39:39.148Z,95859.94
2022-09-16T03:42:11.200Z,95956.34
2022-09-16T03:44:41.360Z,95864.13
2022-09-16T03:47:10.557Z,95936.56
2022-09-16T03:49:39.018Z,95921.63
2022-09-16T03:52:10.527Z,95908.56
2022-09-16T03:54:39.632Z,95876.59
2022-09-16T03:57:08.138Z,95956.66
2022-09-16T03:59:36.314Z,95893.72
2022-09-16T04:02:29.969Z,95966.00
2022-09-16T04:04:58.213Z,95922.06
2022-09-16T04:07:27.764Z,95946.25
2022-09-16T04:09:55.972Z,95931.44
2022-09-16T04:12:24.128Z,95969.88
2022-09-16T04:14:52.289Z,95911.09
2022-09-16T04:17:20.495Z,95961.19
2022-09-16T04:19:48.771Z,95956.41
2022-09-16T04:22:16.927Z,95967.88
2022-09-16T04:24:46.473Z,95879.19
2022-09-16T04:27:14.613Z,95933.31
2022-09-16T04:29:43.243Z,95952.78
2022-09-16T04:32:11.392Z,95952.16
2022-09-16T04:34:39.564Z,95940.63
2022-09-16T04:37:07.756Z,95967.47
2022-09-16T04:39:35.934Z,95985.31
2022-09-16T04:42:06.246Z,95934.94
2022-09-16T04:44:34.453Z,95939.63
2022-09-16T04:47:02.591Z,95991.28
2022-09-16T04:49:30.971Z,95866.72
2022-09-16T04:51:59.531Z,95977.78
2022-09-16T04:54:27.884Z,95920.94
2022-09-16T04:56:56.067Z,95873.66
2022-09-16T04:59:25.570Z,95964.53
2022-09-16T05:01:53.881Z,95959.31
2022-09-16T05:04:22.259Z,95952.34
2022-09-16T05:06:50.373Z,95951.88
2022-09-16T05:09:18.682Z,95977.03
2022-09-16T05:11:46.817Z,95945.72
2022-09-16T05:14:17.324Z,95972.88
2022-09-16T05:16:47.145Z,95979.41
2022-09-16T05:19:16.237Z,95948.63
2022-09-16T05:21:44.462Z,95988.81
2022-09-16T05:24:15.089Z,95778.25
2022-09-16T05:26:44.528Z,95969.22
2022-09-16T05:29:15.605Z,95953.66
2022-09-16T05:31:47.389Z,95951.75
2022-09-16T05:34:18.639Z,95962.00
2022-09-16T05:36:48.055Z,96008.47
2022-09-16T05:39:23.334Z,95957.69
2022-09-16T05:41:56.582Z,95937.56
2022-09-16T05:44:25.142Z,95847.13
2022-09-16T05:46:55.264Z,95949.13
2022-09-16T05:49:24.040Z,95956.31
2022-09-16T05:51:52.989Z,96006.53
2022-09-16T05:54:23.870Z,95964.41
2022-09-16T05:56:52.386Z,95935.00
2022-09-16T05:59:20.958Z,95967.91
2022-09-16T06:01:49.134Z,95923.66
2022-09-16T06:04:37.732Z,95945.47
2022-09-16T06:07:07.277Z,95960.00
2022-09-16T06:09:35.476Z,95977.38
2022-09-16T06:12:03.928Z,95955.31
2022-09-16T06:14:32.608Z,95946.00
2022-09-16T06:17:00.813Z,95942.84
2022-09-16T06:19:29.395Z,95988.34
2022-09-16T06:21:59.503Z,96003.16
2022-09-16T06:24:28.232Z,95935.94
2022-09-16T06:26:56.379Z,95901.25
2022-09-16T06:29:24.913Z,95890.50
2022-09-16T06:31:53.076Z,95946.50
2022-09-16T06:34:21.166Z,95942.66
2022-09-16T06:36:49.431Z,95987.72
2022-09-16T06:39:18.902Z,95982.91
2022-09-16T06:41:47.047Z,96018.53
2022-09-16T06:44:15.694Z,95960.56
2022-09-16T06:46:44.213Z,95928.41
2022-09-16T06:49:13.097Z,95948.00
2022-09-16T06:51:41.495Z,95984.72
2022-09-16T06:54:11.229Z,95962.31
2022-09-16T06:56:41.591Z,95922.84
2022-09-16T06:59:12.884Z,95991.91
2022-09-16T07:01:41.121Z,95983.81
2022-09-16T07:04:13.218Z,95970.47
2022-09-16T07:09:30.177Z,95966.94
2022-09-16T07:12:00.557Z,95943.88
2022-09-16T07:14:32.488Z,95987.31
2022-09-16T07:17:01.198Z,95935.41
2022-09-16T07:19:29.729Z,95956.75
2022-09-16T07:21:58.700Z,95986.41
2022-09-16T07:24:26.969Z,95967.66
2022-09-16T07:26:55.086Z,95953.44
2022-09-16T07:29:24.589Z,95990.94
2022-09-16T07:31:52.762Z,95974.59
2022-09-16T07:34:21.351Z,95966.06
2022-09-16T07:36:51.035Z,96005.69
2022-09-16T07:39:21.164Z,95977.72
2022-09-16T07:41:49.846Z,95979.81
2022-09-16T07:44:20.378Z,95965.63
2022-09-16T07:46:51.332Z,95992.91
2022-09-16T07:49:20.383Z,95967.53
2022-09-16T07:51:49.195Z,95985.91
2022-09-16T07:54:19.912Z,95978.09
2022-09-16T07:56:48.343Z,95973.31
2022-09-16T07:59:20.181Z,95976.50
2022-09-16T08:01:50.896Z,95979.63
2022-09-16T08:04:20.504Z,95895.78
2022-09-16T08:06:49.200Z,95982.72
2022-09-16T08:12:07.970Z,95934.06
2022-09-16T08:14:36.582Z,95989.22
2022-09-16T08:17:07.508Z,95987.03
2022-09-16T08:19:35.651Z,96004.59
2022-09-16T08:22:03.884Z,96013.56
2022-09-16T08:24:32.500Z,96003.94
2022-09-16T08:27:00.663Z,95995.47
2022-09-16T08:29:29.652Z,95962.72
2022-09-16T08:31:57.884Z,95999.94
2022-09-16T08:34:27.520Z,96022.81
2022-09-16T08:36:55.660Z,95994.84
2022-09-16T08:39:23.866Z,96035.28
2022-09-16T08:42:30.256Z,96022.41
2022-09-16T08:45:10.055Z,96001.97
2022-09-16T08:47:52.248Z,96017.09
2022-09-16T08:50:29.042Z,96033.28
2022-09-16T08:53:00.597Z,95984.78
2022-09-16T08:55:32.129Z,96018.03
2022-09-16T08:58:14.729Z,95947.75
2022-09-16T09:00:45.618Z,95870.59
2022-09-16T09:03:32.284Z,96019.44
2022-09-16T09:06:07.124Z,96016.28
2022-09-16T09:08:46.024Z,96023.34
2022-09-16T09:11:22.433Z,95993.34
2022-09-16T09:14:08.583Z,96011.34
2022-09-16T09:16:48.954Z,96023.13
2022-09-16T09:19:39.410Z,96000.66
2022-09-16T09:22:24.213Z,95950.16
2022-09-16T09:25:07.671Z,96003.31
2022-09-16T09:27:44.179Z,95978.84
2022-09-16T09:30:19.629Z,95948.00
2022-09-16T09:33:41.419Z,95963.84
2022-09-16T09:36:29.104Z,96020.03
2022-09-16T09:39:33.357Z,96014.16
2022-09-16T09:42:15.940Z,95989.81
2022-09-16T09:44:53.909Z,96010.47
2022-09-16T09:47:29.107Z,95978.84
2022-09-16T09:50:00.086Z,96007.00
2022-09-16T09:52:36.152Z,95977.41
2022-09-16T09:55:18.232Z,95973.41
2022-09-16T09:58:06.369Z,95962.19
2022-09-16T10:00:34.847Z,95933.69
2022-09-16T10:03:07.852Z,96010.56
2022-09-16T10:05:46.052Z,96003.53
2022-09-16T10:08:25.277Z,95947.50
2022-09-16T10:10:57.758Z,95945.03
2022-09-16T10:13:29.796Z,95979.59
2022-09-16T10:16:10.888Z,95999.38
2022-09-16T10:18:39.836Z,96025.66
2022-09-16T10:21:11.613Z,95934.06
2022-09-16T10:23:40.059Z,96033.34
2022-09-16T10:26:21.070Z,96019.84
2022-09-16T10:29:01.709Z,95958.81
2022-09-16T10:31:37.418Z,95945.50
2022-09-16T10:34:18.233Z,96027.22
2022-09-16T10:36:46.747Z,96004.41
2022-09-16T10:39:26.015Z,95997.50
2022-09-16T10:41:55.669Z,95982.44
2022-09-16T10:44:27.964Z,95983.31
2022-09-16T10:47:00.089Z,95966.72
2022-09-16T10:49:36.700Z,96012.22
2022-09-16T10:52:18.201Z,95988.59
2022-09-16T10:54:47.050Z,95992.09
2022-09-16T10:57:28.735Z,95984.81
2022-09-16T11:00:13.921Z,95993.47
2022-09-16T11:03:19.560Z,95954.16
2022-09-16T11:06:04.277Z,95985.19
2022-09-16T11:08:52.916Z,95989.47
2022-09-16T11:11:44.379Z,95926.25
2022-09-16T11:14:28.049Z,95993.00
2022-09-16T11:17:15.619Z,95942.34
2022-09-16T11:20:18.183Z,95977.50
2022-09-16T11:22:54.882Z,95987.94
2022-09-16T11:25:39.655Z,95984.81
2022-09-16T11:28:50.274Z,95995.22
2022-09-16T11:31:32.816Z,95972.88
2022-09-16T11:34:11.278Z,96020.88
2022-09-16T11:36:50.519Z,95971.50
2022-09-16T11:39:42.882Z,95957.44
2022-09-16T11:42:19.156Z,96007.78
2022-09-16T11:44:52.892Z,96031.78
2022-09-16T11:47:52.475Z,95987.00
2022-09-16T11:50:35.401Z,96033.22
2022-09-16T11:53:34.700Z,96036.06
2022-09-16T11:56:09.888Z,95996.28
2022-09-16T11:58:46.304Z,95995.81
2022-09-16T12:01:29.313Z,96035.16
2022-09-16T12:04:13.796Z,95983.88
2022-09-16T12:06:52.958Z,96009.47
2022-09-16T12:09:29.281Z,95937.47
2022-09-16T12:12:07.060Z,95993.59
2022-09-16T12:14:42.278Z,96018.28
2022-09-16T12:17:17.269Z,96030.38
2022-09-16T12:19:52.428Z,96005.47
2022-09-16T12:22:27.530Z,95987.66
2022-09-16T12:25:03.853Z,95947.69
2022-09-16T12:27:52.448Z,95982.13
2022-09-16T12:30:24.099Z,95995.66
2022-09-16T12:33:02.476Z,95901.88
2022-09-16T12:35:38.128Z,95989.84
2022-09-16T12:38:11.106Z,95946.81
2022-09-16T12:40:53.914Z,95995.38
2022-09-16T12:44:02.234Z,95996.13
2022-09-16T12:46:56.691Z,95986.06
2022-09-16T12:50:02.443Z,95982.84
2022-09-16T12:52:54.711Z,95898.28
2022-09-16T12:55:46.902Z,96002.94
2022-09-16T12:58:53.161Z,95957.06
2022-09-16T13:01:25.641Z,95983.13
2022-09-16T13:03:57.947Z,95949.34
2022-09-16T13:06:30.137Z,95943.34
2022-09-16T13:09:17.256Z,95963.75
2022-09-16T13:14:53.369Z,95971.25
2022-09-16T13:17:31.371Z,95955.59
2022-09-16T13:20:09.251Z,95949.13
2022-09-16T13:22:46.164Z,95933.81
2022-09-16T13:25:24.609Z,95921.31
2022-09-16T13:28:02.069Z,95911.34
2022-09-16T13:30:40.747Z,95956.47
2022-09-16T13:33:30.386Z,95876.38
2022-09-16T13:36:18.794Z,95916.16
2022-09-16T13:38:49.725Z,95925.25
2022-09-16T13:41:37.020Z,95897.28
2022-09-16T13:44:27.944Z,95936.16
2022-09-16T13:46:56.153Z,95903.34
2022-09-16T13:49:27.743Z,95892.19
2022-09-16T13:51:56.317Z,95935.13
2022-09-16T13:54:30.941Z,95896.81
2022-09-16T13:57:38.634Z,95912.09
2022-09-16T14:00:18.654Z,95955.09
2022-09-16T14:03:23.831Z,95946.16
2022-09-16T14:06:33.161Z,95942.28
2022-09-16T14:09:24.050Z,95826.75
2022-09-16T14:12:04.717Z,95924.78
2022-09-16T14:14:46.893Z,95890.72
2022-09-16T14:17:21.202Z,95916.81
2022-09-16T14:19:53.912Z,95929.06
2022-09-16T14:22:25.697Z,95922.13
2022-09-16T14:25:06.164Z,95924.94
2022-09-16T14:27:39.357Z,95812.16
2022-09-16T14:30:17.964Z,95930.25
2022-09-16T14:32:48.090Z,95953.47
2022-09-16T14:35:21.181Z,95917.03
2022-09-16T14:37:53.157Z,95929.84
2022-09-16T14:40:25.288Z,95907.88
2022-09-16T14:42:57.470Z,95736.28
2022-09-16T14:45:28.311Z,95886.34
2022-09-16T14:47:57.919Z,95899.00
2022-09-16T14:50:30.170Z,95907.63
2022-09-16T14:53:00.676Z,95918.84
2022-09-16T14:55:40.159Z,95939.66
2022-09-16T14:58:13.075Z,95905.81
2022-09-16T15:00:49.231Z,95900.13
2022-09-16T15:03:24.737Z,95942.03
2022-09-16T15:05:56.438Z,95903.59
2022-09-16T15:08:30.408Z,95885.88
2022-09-16T15:11:03.613Z,95913.94
2022-09-16T15:13:38.888Z,95923.13
2022-09-16T15:16:12.952Z,95940.22
2022-09-16T15:18:44.451Z,95868.72
2022-09-16T15:21:19.770Z,95923.69
2022-09-16T15:23:51.364Z,95968.75
2022-09-16T15:26:22.896Z,95911.91
2022-09-16T15:28:58.739Z,95855.91
2022-09-16T15:31:35.047Z,95884.59
2022-09-16T15:34:06.594Z,95889.47
2022-09-16T15:36:40.928Z,95893.94
2022-09-16T15:39:25.201Z,95895.16
2022-09-16T15:42:12.089Z,95891.72
2022-09-16T15:44:48.839Z,95933.91
2022-09-16T15:47:21.731Z,95904.56
2022-09-16T15:49:52.266Z,95821.81
2022-09-16T15:52:20.665Z,95881.09
2022-09-16T15:54:53.943Z,95860.06
2022-09-16T15:57:29.940Z,95915.03
2022-09-16T16:00:10.878Z,95911.03
2022-09-16T16:02:46.780Z,95942.84
2022-09-16T16:05:21.153Z,95865.50
2022-09-16T16:07:51.870Z,95839.06
2022-09-16T16:10:23.816Z,95920.47
2022-09-16T16:12:54.512Z,95936.78
2022-09-16T16:15:27.810Z,95905.41
2022-09-16T16:18:02.619Z,95870.78
2022-09-16T16:20:32.656Z,95917.19
2022-09-16T16:23:01.314Z,95935.47
2022-09-16T16:25:29.975Z,95906.00
2022-09-16T16:27:58.124Z,95906.53
2022-09-16T16:30:26.237Z,95907.34
2022-09-16T16:32:54.370Z,95897.53
2022-09-16T16:35:23.786Z,95942.06
2022-09-16T16:37:51.866Z,95876.75
2022-09-16T16:40:20.268Z,95921.44
2022-09-16T16:42:48.478Z,95983.38
2022-09-16T16:45:16.964Z,95892.19
2022-09-16T16:47:46.291Z,95952.66
2022-09-16T16:50:14.865Z,95912.44
2022-09-16T16:52:44.334Z,95955.03
2022-09-16T16:55:12.588Z,95958.44
2022-09-16T16:57:40.767Z,95962.25
2022-09-16T17:00:10.959Z,95947.88
2022-09-16T17:02:39.307Z,95947.63
2022-09-16T17:05:08.538Z,95953.53
2022-09-16T17:07:37.062Z,95952.47
2022-09-16T17:10:07.660Z,95899.69
2022-09-16T17:12:36.276Z,95879.91
2022-09-16T17:15:05.020Z,95958.75
2022-09-16T17:17:33.193Z,95990.22
2022-09-16T17:20:01.427Z,95952.25
2022-09-16T17:22:29.598Z,95946.88
2022-09-16T17:24:57.757Z,95938.41
2022-09-16T17:27:27.989Z,95969.69
2022-09-16T17:29:56.323Z,95957.06
2022-09-16T17:32:24.885Z,95985.09
2022-09-16T17:34:53.058Z,95880.72
2022-09-16T17:37:21.297Z,95947.78
2022-09-16T17:39:49.804Z,95973.28
2022-09-16T17:42:18.079Z,95943.84
2022-09-16T17:44:47.581Z,95967.22
2022-09-16T17:47:15.747Z,96006.22
2022-09-16T17:49:43.919Z,95996.75
2022-09-16T17:52:12.444Z,96000.53
2022-09-16T17:54:41.296Z,96034.56
2022-09-16T17:57:09.424Z,95959.94
2022-09-16T17:59:37.541Z,95951.50
2022-09-16T18:02:13.892Z,95965.81
2022-09-16T18:04:43.006Z,96002.06
2022-09-16T18:07:14.472Z,95926.19
2022-09-16T18:09:42.671Z,95973.06
2022-09-16T18:12:11.201Z,95999.19
2022-09-16T18:14:39.757Z,95975.72
2022-09-16T18:17:07.963Z,95918.56
2022-09-16T18:19:37.533Z,96005.19
2022-09-16T18:22:05.730Z,95990.75
2022-09-16T18:24:33.870Z,96022.56
2022-09-16T18:27:02.485Z,96002.13
2022-09-16T18:29:31.457Z,95979.41
2022-09-16T18:32:00.250Z,95934.44
2022-09-16T18:34:33.258Z,96000.41
2022-09-16T18:37:03.142Z,95969.59
2022-09-16T18:39:31.405Z,95959.97
2022-09-16T18:41:59.794Z,95955.94
2022-09-16T18:44:28.469Z,95947.41
2022-09-16T18:46:56.568Z,95989.22
2022-09-16T18:49:27.117Z,96007.31
2022-09-16T18:51:55.500Z,95977.84
2022-09-16T18:54:28.619Z,95991.59
2022-09-16T18:56:58.953Z,95967.69
2022-09-16T18:59:29.158Z,95993.91
2022-09-16T19:01:59.554Z,96023.94
2022-09-16T19:04:30.696Z,95993.41
2022-09-16T19:07:07.103Z,96050.47
2022-09-16T19:09:39.711Z,96055.81
2022-09-16T19:12:10.818Z,96025.44
2022-09-16T19:14:39.205Z,96014.66
2022-09-16T19:17:07.912Z,96004.28
2022-09-16T19:19:36.164Z,96008.94
2022-09-16T19:22:06.021Z,96040.81
2022-09-16T19:24:37.192Z,96011.19
2022-09-16T19:27:05.584Z,96043.38
2022-09-16T19:29:33.714Z,96042.53
2022-09-16T19:32:02.428Z,96015.00
2022-09-16T19:34:30.633Z,96072.41
2022-09-16T19:36:58.879Z,96036.00
2022-09-16T19:39:27.993Z,95968.06
2022-09-16T19:42:03.079Z,96052.09
2022-09-16T19:44:31.858Z,96043.69
2022-09-16T19:47:01.269Z,95978.47
2022-09-16T19:49:29.424Z,96013.34
2022-09-16T19:51:57.597Z,96005.44
2022-09-16T19:54:25.743Z,96038.19
2022-09-16T19:56:54.344Z,96040.78
2022-09-16T19:59:24.669Z,96027.47
2022-09-16T20:01:53.106Z,96036.91
2022-09-16T20:04:33.361Z,96075.53
2022-09-16T20:07:01.529Z,96007.13
2022-09-16T20:09:29.698Z,96030.91
2022-09-16T20:11:57.958Z,96057.00
2022-09-16T20:14:33.865Z,96017.63
2022-09-16T20:17:02.064Z,96090.25
2022-09-16T20:19:30.402Z,96028.16
2022-09-16T20:21:58.830Z,96078.78
2022-09-16T20:24:27.070Z,96067.59
2022-09-16T20:26:57.274Z,96029.28
2022-09-16T20:29:27.585Z,96056.88
2022-09-16T20:31:55.776Z,96056.59
2022-09-16T20:34:24.412Z,96104.59
2022-09-16T20:36:52.703Z,96056.94
2022-09-16T20:39:22.207Z,96019.06
2022-09-16T20:41:52.619Z,96023.28
2022-09-16T20:44:20.944Z,96041.75
2022-09-16T20:46:50.573Z,96032.22
2022-09-16T20:49:23.210Z,96057.84
2022-09-16T20:51:52.012Z,95987.84
2022-09-16T20:54:20.159Z,96078.59
2022-09-16T20:56:49.298Z,96048.38
2022-09-16T20:59:20.363Z,96062.41
2022-09-16T21:01:50.576Z,96094.06
2022-09-16T21:04:21.125Z,96065.78
2022-09-16T21:06:49.554Z,96119.03
2022-09-16T21:09:19.028Z,96067.78
2022-09-16T21:11:47.826Z,96019.59
2022-09-16T21:14:17.998Z,96097.00
2022-09-16T21:16:47.089Z,96111.09
2022-09-16T21:19:17.909Z,96088.16
2022-09-16T21:21:47.583Z,96060.19
2022-09-16T21:24:16.881Z,96076.31
2022-09-16T21:26:46.001Z,96106.59
2022-09-16T21:29:17.550Z,96095.41
2022-09-16T21:31:46.041Z,96115.50
2022-09-16T21:34:18.406Z,96112.56
2022-09-16T21:36:46.814Z,96129.81
2022-09-16T21:39:16.776Z,96127.19
2022-09-16T21:41:48.976Z,96129.97
2022-09-16T21:44:17.978Z,96135.19
2022-09-16T21:46:47.909Z,96098.94
2022-09-16T21:49:24.126Z,96057.69
2022-09-16T21:51:54.086Z,96085.94
2022-09-16T21:54:23.049Z,96147.06
2022-09-16T21:56:52.814Z,96025.63
2022-09-16T21:59:21.417Z,96136.19
2022-09-16T22:01:51.092Z,96124.41
2022-09-16T22:04:24.576Z,96126.50
2022-09-16T22:06:56.416Z,96113.19
2022-09-16T22:09:24.694Z,96092.28
2022-09-16T22:11:52.901Z,96102.38
2022-09-16T22:14:21.197Z,96081.97
2022-09-16T22:16:49.491Z,96090.34
2022-09-16T22:19:20.717Z,96094.50
2022-09-16T22:21:51.557Z,96103.34
2022-09-16T22:24:21.407Z,96079.34
2022-09-16T22:26:51.677Z,96111.53
2022-09-16T22:29:20.322Z,96090.53
2022-09-16T22:31:48.631Z,96134.41
2022-09-16T22:34:16.929Z,96140.47
2022-09-16T22:36:46.579Z,96023.31
2022-09-16T22:39:17.792Z,96106.44
2022-09-16T22:41:46.002Z,96119.72
2022-09-16T22:44:14.625Z,96079.78
2022-09-16T22:46:45.462Z,96099.03
2022-09-16T22:49:14.430Z,96076.84
2022-09-16T22:51:43.383Z,96020.44
2022-09-16T22:54:14.500Z,96124.19
2022-09-16T22:56:44.770Z,96082.03
2022-09-16T22:59:19.001Z,96094.69
2022-09-16T23:01:47.851Z,95924.22
2022-09-16T23:04:16.283Z,96122.91
2022-09-16T23:06:44.466Z,96112.53
2022-09-16T23:09:16.893Z,96071.84
2022-09-16T23:11:45.856Z,96137.47
2022-09-16T23:14:24.641Z,96111.72
2022-09-16T23:16:54.144Z,96091.03
2022-09-16T23:19:23.128Z,96090.06
2022-09-16T23:21:51.436Z,96044.81
2022-09-16T23:24:23.053Z,96052.66
2022-09-16T23:26:51.258Z,96070.41
2022-09-16T23:29:19.699Z,96115.66
2022-09-16T23:31:47.933Z,96109.09
2022-09-16T23:34:19.490Z,96115.97
2022-09-16T23:36:48.004Z,96065.00
2022-09-16T23:39:17.711Z,96119.25
2022-09-16T23:41:48.142Z,96113.03
2022-09-16T23:44:16.833Z,96120.59
2022-09-16T23:46:45.414Z,96128.44
2022-09-16T23:49:16.902Z,96069.91
2022-09-16T23:51:45.154Z,96070.41
2022-09-16T23:54:13.918Z,96131.06
2022-09-16T23:56:43.307Z,96121.53
2022-09-16T23:59:13.608Z,96048.41
